createdAt,value
2019-01-19T00:02:25.310Z,53.19
2019-01-19T00:05:01.338Z,53.13
2019-01-19T00:07:42.020Z,53.14
2019-01-19T00:10:26.271Z,53.23
2019-01-19T00:13:12.564Z,53.09
2019-01-19T00:16:14.881Z,53.04
2019-01-19T00:18:49.178Z,53.22
2019-01-19T00:21:42.278Z,53.13
2019-01-19T00:24:29.613Z,53.02
2019-01-19T00:27:09.867Z,52.94
2019-01-19T00:29:48.657Z,53.02
2019-01-19T00:32:38.929Z,52.91
2019-01-19T00:35:18.032Z,53.03
2019-01-19T00:37:54.517Z,52.97
2019-01-19T00:40:44.703Z,52.92
2019-01-19T00:43:28.734Z,52.86
2019-01-19T00:46:28.273Z,52.88
2019-01-19T00:49:15.530Z,52.78
2019-01-19T00:52:01.679Z,53.03
2019-01-19T00:54:32.895Z,52.93
2019-01-19T00:57:23.203Z,52.76
2019-01-19T00:59:54.467Z,52.78
2019-01-19T01:02:40.617Z,53.12
2019-01-19T01:05:16.913Z,53.03
2019-01-19T01:07:57.245Z,52.96
2019-01-19T01:10:31.732Z,52.90
2019-01-19T01:13:12.254Z,52.94
2019-01-19T01:16:05.840Z,52.83
2019-01-19T01:18:59.319Z,52.95
2019-01-19T01:21:32.356Z,52.89
2019-01-19T01:24:14.408Z,53.28
2019-01-19T01:27:17.231Z,53.25
2019-01-19T01:29:57.903Z,53.39
2019-01-19T01:32:29.752Z,53.35
2019-01-19T01:35:17.003Z,53.35
2019-01-19T01:38:03.500Z,53.33
2019-01-19T01:40:49.778Z,53.21
2019-01-19T01:43:46.084Z,53.36
2019-01-19T01:46:33.343Z,53.38
2019-01-19T01:49:10.821Z,53.20
2019-01-19T01:51:42.395Z,53.40
2019-01-19T01:54:28.800Z,53.30
2019-01-19T01:56:58.389Z,53.19
2019-01-19T01:59:31.953Z,53.11
2019-01-19T02:02:03.877Z,53.20
2019-01-19T02:04:49.608Z,53.15
2019-01-19T02:07:21.343Z,53.27
2019-01-19T02:10:05.197Z,53.22
2019-01-19T02:12:58.526Z,53.16
2019-01-19T02:15:32.937Z,53.00
2019-01-19T02:18:20.206Z,53.15
2019-01-19T02:21:02.456Z,53.10
2019-01-19T02:23:44.236Z,53.16
2019-01-19T02:26:30.203Z,53.26
2019-01-19T02:29:20.232Z,53.14
2019-01-19T02:32:13.562Z,53.03
2019-01-19T02:35:03.289Z,53.01
2019-01-19T02:37:53.655Z,53.09
2019-01-19T02:40:40.910Z,52.95
2019-01-19T02:43:34.211Z,52.89
2019-01-19T02:46:36.508Z,53.06
2019-01-19T02:49:22.095Z,53.05
2019-01-19T02:52:09.410Z,53.02
2019-01-19T02:54:56.677Z,53.22
2019-01-19T02:57:29.856Z,52.95
2019-01-19T03:00:17.136Z,52.85
2019-01-19T03:02:54.082Z,52.93
2019-01-19T03:05:47.480Z,53.04
2019-01-19T03:08:23.269Z,52.97
2019-01-19T03:11:09.582Z,52.93
2019-01-19T03:13:55.813Z,53.03
2019-01-19T03:16:37.495Z,52.98
2019-01-19T03:19:11.612Z,52.90
2019-01-19T03:21:50.929Z,52.73
2019-01-19T03:24:22.812Z,52.87
2019-01-19T03:27:10.075Z,52.84
2019-01-19T03:29:53.093Z,52.75
2019-01-19T03:32:24.559Z,52.80
2019-01-19T03:35:09.154Z,52.73
2019-01-19T03:37:59.548Z,52.82
2019-01-19T03:40:34.646Z,52.80
2019-01-19T03:43:13.817Z,52.70
2019-01-19T03:46:08.018Z,52.85
2019-01-19T03:48:46.803Z,52.66
2019-01-19T03:51:52.289Z,52.55
2019-01-19T03:54:39.154Z,52.59
2019-01-19T03:57:10.948Z,52.73
2019-01-19T03:59:56.847Z,52.56
2019-01-19T04:02:42.917Z,52.59
2019-01-19T04:05:21.220Z,52.62
2019-01-19T04:08:08.514Z,52.58
2019-01-19T04:11:02.188Z,52.70
2019-01-19T04:13:49.446Z,52.67
2019-01-19T04:16:32.033Z,52.70
2019-01-19T04:19:19.301Z,52.78
2019-01-19T04:22:06.526Z,52.96
2019-01-19T04:24:53.773Z,52.73
2019-01-19T04:27:21.917Z,52.63
2019-01-19T04:29:50.056Z,52.68
2019-01-19T04:32:18.193Z,52.66
2019-01-19T04:35:05.409Z,52.47
2019-01-19T04:37:33.565Z,52.44
2019-01-19T04:40:01.711Z,52.53
2019-01-19T04:45:04.789Z,52.79
2019-01-19T04:47:32.930Z,52.84
2019-01-19T04:50:01.097Z,52.78
2019-01-19T04:52:29.243Z,52.78
2019-01-19T04:54:57.377Z,52.65
2019-01-19T04:57:25.557Z,52.87
2019-01-19T05:00:12.773Z,52.78
2019-01-19T05:02:40.929Z,52.89
2019-01-19T05:05:09.083Z,53.05
2019-01-19T05:07:37.203Z,52.77
2019-01-19T05:12:40.096Z,52.70
2019-01-19T05:15:09.757Z,52.66
2019-01-19T05:17:37.897Z,52.79
2019-01-19T05:20:06.477Z,52.72
2019-01-19T05:22:53.566Z,52.68
2019-01-19T05:25:21.706Z,52.75
2019-01-19T05:27:49.870Z,52.71
2019-01-19T05:30:18.927Z,52.84
2019-01-19T05:32:47.161Z,52.78
2019-01-19T05:35:15.529Z,52.67
2019-01-19T05:38:02.582Z,52.81
2019-01-19T05:40:30.731Z,52.89
2019-01-19T05:42:58.865Z,52.79
2019-01-19T05:45:26.993Z,52.80
2019-01-19T05:47:55.137Z,52.69
2019-01-19T05:50:23.309Z,52.65
2019-01-19T05:52:51.485Z,52.72
2019-01-19T05:55:19.625Z,52.67
2019-01-19T05:57:47.747Z,52.68
2019-01-19T06:00:17.198Z,52.71
2019-01-19T06:02:45.342Z,52.70
2019-01-19T06:05:13.469Z,52.73
2019-01-19T06:07:41.893Z,52.88
2019-01-19T06:10:12.579Z,52.81
2019-01-19T06:12:40.708Z,52.73
2019-01-19T06:15:09.618Z,52.81
2019-01-19T06:17:37.744Z,52.84
2019-01-19T06:20:05.969Z,52.84
2019-01-19T06:22:34.127Z,52.73
2019-01-19T06:25:02.304Z,52.76
2019-01-19T06:27:30.441Z,52.79
2019-01-19T06:29:58.582Z,52.79
2019-01-19T06:35:01.926Z,52.72
2019-01-19T06:37:30.092Z,52.86
2019-01-19T06:39:58.226Z,52.80
2019-01-19T06:42:26.361Z,52.81
2019-01-19T06:44:54.554Z,52.78
2019-01-19T06:47:22.646Z,52.80
2019-01-19T06:49:50.808Z,53.11
2019-01-19T06:52:37.942Z,53.73
2019-01-19T06:55:06.401Z,54.20
2019-01-19T06:57:53.646Z,54.28
2019-01-19T07:00:21.764Z,54.53
2019-01-19T07:02:49.953Z,54.78
2019-01-19T07:05:18.075Z,54.99
2019-01-19T07:07:46.214Z,54.95
2019-01-19T07:10:33.449Z,55.46
2019-01-19T07:13:01.650Z,55.88
2019-01-19T07:15:29.759Z,55.77
2019-01-19T07:17:57.883Z,55.93
2019-01-19T07:20:27.177Z,55.73
2019-01-19T07:22:55.322Z,55.45
2019-01-19T07:25:23.525Z,55.00
2019-01-19T07:27:51.662Z,52.95
2019-01-19T07:30:19.821Z,51.54
2019-01-19T07:32:47.979Z,51.36
2019-01-19T07:35:16.152Z,50.96
2019-01-19T07:37:44.294Z,50.86
2019-01-19T07:40:13.619Z,50.82
2019-01-19T07:45:16.888Z,50.99
2019-01-19T07:47:45.802Z,51.15
2019-01-19T07:50:14.926Z,51.20
2019-01-19T07:52:43.065Z,51.29
2019-01-19T07:55:11.596Z,51.23
2019-01-19T07:57:39.766Z,51.38
2019-01-19T08:00:37.104Z,51.39
2019-01-19T08:03:05.266Z,51.55
2019-01-19T08:05:33.401Z,51.64
2019-01-19T08:08:01.573Z,51.68
2019-01-19T08:10:48.789Z,51.73
2019-01-19T08:13:16.935Z,51.79
2019-01-19T08:15:45.085Z,51.72
2019-01-19T08:18:13.342Z,51.76
2019-01-19T08:20:41.481Z,51.88
2019-01-19T08:23:09.726Z,51.84
2019-01-19T08:25:37.864Z,51.88
2019-01-19T08:28:06.424Z,52.26
2019-01-19T08:30:34.550Z,52.09
2019-01-19T08:33:22.021Z,52.40
2019-01-19T08:35:50.951Z,52.43
2019-01-19T08:38:19.720Z,52.38
2019-01-19T08:40:48.620Z,52.19
2019-01-19T08:43:35.903Z,52.11
2019-01-19T08:46:23.124Z,52.16
2019-01-19T08:48:51.281Z,52.17
2019-01-19T08:51:19.412Z,52.41
2019-01-19T08:53:47.564Z,52.33
2019-01-19T08:56:16.144Z,52.33
2019-01-19T08:58:44.251Z,52.11
2019-01-19T09:01:12.876Z,52.03
2019-01-19T09:03:41.025Z,52.00
2019-01-19T09:06:09.482Z,51.75
2019-01-19T09:08:37.641Z,51.76
2019-01-19T09:11:06.351Z,51.63
2019-01-19T09:13:34.573Z,51.74
2019-01-19T09:16:12.839Z,51.74
2019-01-19T09:18:41.022Z,51.79
2019-01-19T09:21:09.626Z,51.73
2019-01-19T09:23:58.113Z,51.53
2019-01-19T09:26:26.544Z,51.37
2019-01-19T09:28:54.749Z,51.15
2019-01-19T09:31:23.028Z,50.78
2019-01-19T09:33:51.191Z,50.63
2019-01-19T09:36:19.350Z,50.62
2019-01-19T09:38:47.515Z,50.47
2019-01-19T09:41:15.744Z,50.35
2019-01-19T09:43:43.892Z,48.64
2019-01-19T09:46:12.099Z,48.16
2019-01-19T09:48:40.327Z,48.60
2019-01-19T09:51:08.501Z,48.54
2019-01-19T09:53:36.691Z,48.68
2019-01-19T09:56:05.293Z,48.80
2019-01-19T09:58:33.451Z,48.70
2019-01-19T10:01:01.681Z,48.75
2019-01-19T10:03:29.840Z,48.60
2019-01-19T10:05:58.159Z,48.63
2019-01-19T10:08:26.312Z,48.48
2019-01-19T10:17:01.918Z,48.14
2019-01-19T10:19:30.534Z,48.10
2019-01-19T10:21:58.858Z,48.23
2019-01-19T10:24:27.033Z,48.23
2019-01-19T10:26:55.402Z,48.14
2019-01-19T10:29:23.812Z,48.17
2019-01-19T10:31:52.456Z,48.28
2019-01-19T10:34:20.725Z,48.54
2019-01-19T10:36:48.900Z,48.47
2019-01-19T10:39:17.149Z,48.51
2019-01-19T10:41:45.283Z,48.26
2019-01-19T10:44:13.528Z,48.55
2019-01-19T10:47:00.709Z,48.61
2019-01-19T10:49:29.193Z,48.51
2019-01-19T10:51:59.543Z,48.78
2019-01-19T10:54:27.377Z,48.75
2019-01-19T10:56:55.529Z,48.80
2019-01-19T10:59:23.664Z,48.60
2019-01-19T11:02:10.909Z,48.54
2019-01-19T11:04:39.045Z,48.63
2019-01-19T11:07:07.332Z,48.79
2019-01-19T11:09:35.472Z,48.80
2019-01-19T11:12:03.610Z,48.81
2019-01-19T11:14:50.689Z,48.95
2019-01-19T11:17:18.882Z,49.07
2019-01-19T11:20:06.196Z,49.27
2019-01-19T11:22:34.329Z,49.22
2019-01-19T11:25:02.486Z,49.32
2019-01-19T11:27:30.634Z,49.29
2019-01-19T11:29:58.772Z,49.35
2019-01-19T11:32:27.200Z,49.29
2019-01-19T11:34:55.358Z,49.32
2019-01-19T11:37:23.499Z,49.28
2019-01-19T11:39:51.664Z,49.35
2019-01-19T11:42:19.833Z,49.46
2019-01-19T11:44:48.052Z,49.34
2019-01-19T11:47:16.182Z,49.32
2019-01-19T11:49:44.324Z,49.44
2019-01-19T11:52:12.465Z,49.52
2019-01-19T11:57:27.956Z,49.68
2019-01-19T11:59:56.102Z,49.66
2019-01-19T12:02:24.249Z,49.61
2019-01-19T12:04:52.389Z,49.61
2019-01-19T12:07:20.569Z,49.49
2019-01-19T12:09:48.746Z,48.52
2019-01-19T12:12:16.885Z,47.53
2019-01-19T12:14:45.075Z,47.35
2019-01-19T12:17:13.217Z,47.05
2019-01-19T12:19:41.377Z,47.46
2019-01-19T12:22:09.596Z,47.83
2019-01-19T12:24:37.751Z,47.87
2019-01-19T12:27:05.938Z,47.89
2019-01-19T12:29:34.060Z,47.78
2019-01-19T12:32:02.200Z,47.86
2019-01-19T12:34:30.403Z,47.79
2019-01-19T12:37:17.640Z,47.52
2019-01-19T12:39:45.898Z,47.51
2019-01-19T12:45:03.023Z,47.88
2019-01-19T12:47:31.367Z,47.85
2019-01-19T12:49:59.602Z,47.84
2019-01-19T12:52:27.864Z,47.96
2019-01-19T12:54:56.165Z,48.08
2019-01-19T12:57:24.471Z,48.18
2019-01-19T12:59:52.703Z,48.27
2019-01-19T13:02:21.056Z,48.38
2019-01-19T13:04:49.266Z,48.43
2019-01-19T13:07:17.622Z,48.28
2019-01-19T13:09:47.226Z,48.38
2019-01-19T13:12:18.372Z,48.42
2019-01-19T13:14:49.838Z,48.40
2019-01-19T13:17:37.077Z,48.44
2019-01-19T13:20:24.307Z,48.53
2019-01-19T13:23:11.596Z,48.55
2019-01-19T13:25:58.845Z,48.44
2019-01-19T13:28:46.092Z,48.53
2019-01-19T13:31:33.390Z,48.23
2019-01-19T13:34:08.529Z,48.03
2019-01-19T13:36:55.748Z,48.12
2019-01-19T13:39:43.010Z,48.14
2019-01-19T13:42:30.235Z,48.10
2019-01-19T13:45:17.788Z,48.32
2019-01-19T13:48:04.976Z,48.40
2019-01-19T13:50:38.708Z,48.53
2019-01-19T13:53:25.920Z,48.51
2019-01-19T13:56:13.149Z,48.50
2019-01-19T13:58:54.664Z,48.51
2019-01-19T14:01:41.890Z,48.43
2019-01-19T14:04:29.241Z,48.59
2019-01-19T14:07:16.492Z,48.43
2019-01-19T14:10:03.886Z,48.26
2019-01-19T14:12:51.216Z,47.94
2019-01-19T14:15:22.427Z,47.72
2019-01-19T14:18:09.887Z,47.76
2019-01-19T14:20:57.269Z,47.91
2019-01-19T14:23:48.114Z,47.78
2019-01-19T14:26:35.427Z,47.79
2019-01-19T14:29:22.748Z,47.78
2019-01-19T14:32:10.027Z,47.93
2019-01-19T14:34:57.302Z,47.92
2019-01-19T14:37:44.590Z,47.84
2019-01-19T14:40:31.899Z,47.26
2019-01-19T14:43:19.218Z,46.32
2019-01-19T14:46:06.670Z,46.04
2019-01-19T14:48:53.922Z,46.20
2019-01-19T14:51:41.251Z,46.39
2019-01-19T14:54:28.731Z,46.45
2019-01-19T14:57:16.039Z,46.46
2019-01-19T15:00:03.315Z,46.48
2019-01-19T15:02:50.712Z,46.43
2019-01-19T15:05:37.974Z,46.34
2019-01-19T15:08:12.803Z,46.19
2019-01-19T15:11:00.121Z,45.96
2019-01-19T15:13:47.370Z,45.58
2019-01-19T15:16:34.668Z,44.82
2019-01-19T15:19:21.956Z,44.64
2019-01-19T15:22:09.834Z,44.16
2019-01-19T15:25:09.315Z,43.60
2019-01-19T15:27:56.545Z,43.31
2019-01-19T15:30:43.821Z,43.56
2019-01-19T15:33:31.088Z,44.15
2019-01-19T15:36:18.327Z,44.27
2019-01-19T15:39:10.883Z,44.47
2019-01-19T15:41:43.872Z,44.62
2019-01-19T15:44:31.516Z,44.86
2019-01-19T15:47:18.789Z,44.92
2019-01-19T15:50:06.079Z,45.48
2019-01-19T15:53:12.299Z,45.65
2019-01-19T15:55:59.529Z,45.98
2019-01-19T15:58:46.752Z,45.99
2019-01-19T16:01:34.130Z,46.29
2019-01-19T16:04:10.878Z,46.38
2019-01-19T16:06:58.165Z,46.54
2019-01-19T16:09:45.447Z,46.61
2019-01-19T16:12:32.873Z,46.68
2019-01-19T16:15:17.343Z,46.68
2019-01-19T16:18:04.869Z,46.70
2019-01-19T16:20:52.428Z,46.73
2019-01-19T16:23:29.734Z,46.73
2019-01-19T16:26:29.012Z,46.86
2019-01-19T16:29:16.304Z,46.83
2019-01-19T16:32:07.750Z,47.09
2019-01-19T16:34:48.881Z,47.12
2019-01-19T16:37:20.210Z,47.13
2019-01-19T16:39:56.039Z,47.34
2019-01-19T16:42:49.432Z,47.29
2019-01-19T16:45:36.290Z,47.42
2019-01-19T16:48:16.958Z,47.41
2019-01-19T16:50:57.533Z,47.38
2019-01-19T16:53:57.647Z,47.46
2019-01-19T16:56:56.870Z,47.42
2019-01-19T16:59:44.499Z,47.50
2019-01-19T17:02:28.428Z,47.45
2019-01-19T17:05:14.488Z,47.51
2019-01-19T17:08:04.849Z,47.61
2019-01-19T17:10:58.234Z,47.71
2019-01-19T17:13:30.612Z,47.76
2019-01-19T17:16:19.601Z,47.57
2019-01-19T17:18:55.128Z,47.84
2019-01-19T17:21:48.669Z,47.74
2019-01-19T17:24:30.709Z,47.70
2019-01-19T17:27:33.349Z,47.79
2019-01-19T17:30:32.612Z,47.71
2019-01-19T17:33:08.284Z,47.66
2019-01-19T17:36:01.415Z,47.68
2019-01-19T17:38:48.729Z,47.70
2019-01-19T17:41:32.129Z,47.72
2019-01-19T17:44:22.657Z,47.69
2019-01-19T17:47:22.215Z,47.80
2019-01-19T17:50:18.696Z,47.93
2019-01-19T17:52:51.593Z,48.10
2019-01-19T17:55:44.998Z,48.12
2019-01-19T17:58:32.275Z,48.05
2019-01-19T18:01:22.893Z,44.41
2019-01-19T18:03:58.355Z,47.91
2019-01-19T18:06:39.669Z,48.16
2019-01-19T18:09:26.973Z,48.15
2019-01-19T18:12:20.467Z,48.13
2019-01-19T18:14:54.124Z,48.20
2019-01-19T18:17:50.828Z,48.32
2019-01-19T18:20:44.172Z,48.34
2019-01-19T18:23:46.862Z,48.25
2019-01-19T18:26:40.092Z,48.34
2019-01-19T18:29:25.452Z,48.36
2019-01-19T18:32:05.290Z,48.25
2019-01-19T18:34:48.178Z,48.16
2019-01-19T18:37:41.338Z,48.31
2019-01-19T18:40:27.316Z,48.46
2019-01-19T18:43:02.529Z,48.53
2019-01-19T18:45:56.092Z,48.42
2019-01-19T18:49:01.997Z,48.45
2019-01-19T18:51:48.234Z,48.36
2019-01-19T18:54:44.569Z,48.51
2019-01-19T18:57:44.187Z,48.40
2019-01-19T19:00:26.178Z,48.36
2019-01-19T19:03:16.389Z,48.42
2019-01-19T19:05:57.280Z,48.38
2019-01-19T19:08:47.540Z,48.46
2019-01-19T19:14:26.350Z,48.50
2019-01-19T19:17:13.956Z,48.51
2019-01-19T19:19:55.113Z,48.57
2019-01-19T19:22:36.752Z,48.35
2019-01-19T19:25:29.962Z,48.37
2019-01-19T19:28:16.025Z,48.58
2019-01-19T19:31:15.477Z,48.71
2019-01-19T19:33:48.739Z,48.88
2019-01-19T19:36:26.580Z,48.77
2019-01-19T19:39:26.258Z,48.83
2019-01-19T19:42:01.113Z,49.18
2019-01-19T19:44:47.405Z,49.44
2019-01-19T19:47:34.519Z,49.47
2019-01-19T19:50:29.012Z,49.56
2019-01-19T19:52:57.331Z,49.66
2019-01-19T19:55:24.778Z,49.38
2019-01-19T19:57:53.053Z,49.35
2019-01-19T20:00:21.419Z,49.19
2019-01-19T20:02:49.852Z,49.65
2019-01-19T20:05:18.205Z,49.82
2019-01-19T20:07:46.407Z,49.92
2019-01-19T20:10:17.221Z,49.92
2019-01-19T20:12:44.604Z,49.84
2019-01-19T20:15:12.775Z,49.83
2019-01-19T20:17:40.937Z,49.94
2019-01-19T20:20:09.059Z,49.72
2019-01-19T20:22:37.215Z,49.67
2019-01-19T20:25:05.459Z,49.70
2019-01-19T20:27:33.594Z,49.84
2019-01-19T20:30:01.897Z,49.65
2019-01-19T20:32:30.017Z,49.78
2019-01-19T20:34:58.147Z,49.71
2019-01-19T20:37:26.727Z,49.67
2019-01-19T20:39:55.202Z,49.66
2019-01-19T20:42:23.424Z,49.67
2019-01-19T20:44:51.583Z,49.53
2019-01-19T20:47:19.708Z,49.50
2019-01-19T20:49:48.068Z,49.58
2019-01-19T20:52:16.198Z,49.62
2019-01-19T20:54:44.431Z,49.70
2019-01-19T20:57:12.556Z,49.74
2019-01-19T20:59:40.706Z,49.59
2019-01-19T21:02:08.837Z,49.58
2019-01-19T21:04:36.973Z,49.59
2019-01-19T21:07:05.288Z,49.67
2019-01-19T21:09:33.714Z,49.56
2019-01-19T21:12:01.973Z,49.56
2019-01-19T21:14:30.146Z,49.59
2019-01-19T21:16:58.285Z,49.57
2019-01-19T21:19:26.410Z,49.59
2019-01-19T21:21:54.781Z,49.70
2019-01-19T21:24:22.911Z,49.61
2019-01-19T21:26:51.093Z,49.57
2019-01-19T21:29:19.225Z,49.62
2019-01-19T21:31:47.378Z,49.63
2019-01-19T21:34:15.639Z,49.50
2019-01-19T21:36:43.800Z,49.51
2019-01-19T21:39:11.949Z,49.46
2019-01-19T21:41:40.226Z,49.59
2019-01-19T21:44:08.359Z,49.67
2019-01-19T21:46:37.033Z,49.69
2019-01-19T21:49:05.163Z,49.62
2019-01-19T21:51:33.918Z,49.66
2019-01-19T21:54:02.031Z,49.53
2019-01-19T21:56:30.689Z,49.52
2019-01-19T21:58:58.846Z,49.35
2019-01-19T22:01:27.531Z,49.49
2019-01-19T22:03:55.757Z,49.30
2019-01-19T22:06:24.480Z,49.26
2019-01-19T22:08:52.681Z,49.42
2019-01-19T22:11:21.354Z,49.42
2019-01-19T22:13:49.474Z,49.39
2019-01-19T22:16:18.172Z,49.37
2019-01-19T22:18:46.341Z,49.50
2019-01-19T22:21:14.935Z,49.44
2019-01-19T22:23:43.153Z,49.44
2019-01-19T22:26:13.269Z,49.41
2019-01-19T22:28:41.473Z,49.50
2019-01-19T22:31:09.660Z,49.41
2019-01-19T22:33:38.308Z,49.41
2019-01-19T22:36:07.464Z,49.43
2019-01-19T22:38:36.215Z,49.42
2019-01-19T22:41:04.348Z,49.35
2019-01-19T22:43:33.759Z,49.31
2019-01-19T22:46:01.990Z,49.39
2019-01-19T22:48:30.581Z,49.41
2019-01-19T22:50:58.726Z,49.43
2019-01-19T22:53:27.447Z,49.36
2019-01-19T22:55:55.554Z,49.43
2019-01-19T22:58:26.023Z,49.34
2019-01-19T23:01:29.089Z,49.33
2019-01-19T23:03:57.280Z,49.55
2019-01-19T23:06:26.327Z,49.38
2019-01-19T23:08:54.507Z,49.37
2019-01-19T23:11:25.344Z,49.20
2019-01-19T23:13:53.541Z,49.36
2019-01-19T23:16:21.688Z,49.50
2019-01-19T23:18:49.848Z,49.39
2019-01-19T23:21:17.971Z,49.57
2019-01-19T23:23:46.109Z,49.46
2019-01-19T23:26:14.347Z,49.42
2019-01-19T23:28:42.481Z,49.46
2019-01-19T23:31:10.623Z,49.40
2019-01-19T23:33:38.981Z,49.43
2019-01-19T23:36:07.136Z,49.72
2019-01-19T23:38:35.312Z,49.87
2019-01-19T23:41:08.912Z,50.05
2019-01-19T23:43:33.218Z,50.24
2019-01-19T23:46:01.344Z,50.07
2019-01-19T23:48:29.507Z,50.24
2019-01-19T23:50:57.635Z,50.33
2019-01-19T23:53:25.772Z,50.28
2019-01-19T23:55:53.907Z,50.25
2019-01-19T23:58:22.037Z,50.26
